createdAt,value
2022-08-07T00:00:40.199Z,13.00
2022-08-07T00:03:09.312Z,13.00
2022-08-07T00:05:38.070Z,13.20
2022-08-07T00:08:08.105Z,13.20
2022-08-07T00:10:47.630Z,13.10
2022-08-07T00:13:25.785Z,12.90
2022-08-07T00:15:55.663Z,12.90
2022-08-07T00:18:25.653Z,12.80
2022-08-07T00:20:56.769Z,12.90
2022-08-07T00:23:28.484Z,13.00
2022-08-07T00:26:02.796Z,13.10
2022-08-07T00:28:45.622Z,13.10
2022-08-07T00:31:16.591Z,13.10
2022-08-07T00:33:47.706Z,13.20
2022-08-07T00:36:16.908Z,13.20
2022-08-07T00:38:46.640Z,13.10
2022-08-07T00:41:26.961Z,13.00
2022-08-07T00:44:00.279Z,12.90
2022-08-07T00:46:33.152Z,13.10
2022-08-07T00:49:03.236Z,13.10
2022-08-07T00:51:56.953Z,13.00
2022-08-07T00:54:22.496Z,13.00
2022-08-07T00:56:51.183Z,12.90
2022-08-07T00:59:32.502Z,12.80
2022-08-07T01:02:09.044Z,12.80
2022-08-07T01:04:54.626Z,12.50
2022-08-07T01:07:27.831Z,12.40
2022-08-07T01:10:06.537Z,12.20
2022-08-07T01:12:53.082Z,12.10
2022-08-07T01:15:22.421Z,11.80
2022-08-07T01:18:04.631Z,11.90
2022-08-07T01:20:36.266Z,12.00
2022-08-07T01:23:14.049Z,11.90
2022-08-07T01:25:55.222Z,11.70
2022-08-07T01:28:25.036Z,11.80
2022-08-07T01:30:55.140Z,11.80
2022-08-07T01:33:30.071Z,11.70
2022-08-07T01:36:16.834Z,11.70
2022-08-07T01:38:46.910Z,12.00
2022-08-07T01:41:26.256Z,12.00
2022-08-07T01:43:55.386Z,11.60
2022-08-07T01:46:23.792Z,11.80
2022-08-07T01:48:52.002Z,11.80
2022-08-07T01:51:58.689Z,11.70
2022-08-07T01:54:33.145Z,11.60
2022-08-07T01:57:08.182Z,11.90
2022-08-07T01:59:44.166Z,12.00
2022-08-07T02:02:32.752Z,12.00
2022-08-07T02:05:04.683Z,11.80
2022-08-07T02:07:49.929Z,11.80
2022-08-07T02:10:24.647Z,11.60
2022-08-07T02:12:54.784Z,11.50
2022-08-07T02:15:28.085Z,11.40
2022-08-07T02:17:59.856Z,11.20
2022-08-07T02:20:29.993Z,11.60
2022-08-07T02:23:05.965Z,11.60
2022-08-07T02:26:31.668Z,11.70
2022-08-07T02:28:30.647Z,11.90
2022-08-07T02:31:01.746Z,11.70
2022-08-07T02:33:57.284Z,11.80
2022-08-07T02:36:32.765Z,11.80
2022-08-07T02:39:09.304Z,11.80
2022-08-07T02:41:54.279Z,11.80
2022-08-07T02:44:27.713Z,12.10
2022-08-07T02:47:06.400Z,11.90
2022-08-07T02:49:57.930Z,11.70
2022-08-07T02:52:32.141Z,11.80
2022-08-07T02:55:04.060Z,11.60
2022-08-07T02:57:37.549Z,11.10
2022-08-07T03:00:10.379Z,11.30
2022-08-07T03:02:54.418Z,11.50
2022-08-07T03:05:25.226Z,11.70
2022-08-07T03:08:07.182Z,12.00
2022-08-07T03:10:40.890Z,12.00
2022-08-07T03:13:19.651Z,12.20
2022-08-07T03:15:58.337Z,12.30
2022-08-07T03:18:35.097Z,12.00
2022-08-07T03:21:08.851Z,12.00
2022-08-07T03:24:20.341Z,12.10
2022-08-07T03:26:31.915Z,12.00
2022-08-07T03:29:03.899Z,12.10
2022-08-07T03:31:43.443Z,12.10
2022-08-07T03:34:22.343Z,12.20
2022-08-07T03:36:53.633Z,11.80
2022-08-07T03:39:42.205Z,11.90
2022-08-07T03:42:13.088Z,11.40
2022-08-07T03:44:43.159Z,11.40
2022-08-07T03:47:22.781Z,11.80
2022-08-07T03:49:52.230Z,11.80
2022-08-07T03:52:26.498Z,11.40
2022-08-07T03:54:57.097Z,11.10
2022-08-07T03:58:34.821Z,11.10
2022-08-07T04:00:21.034Z,11.10
2022-08-07T04:02:57.593Z,11.10
2022-08-07T04:05:28.775Z,11.60
2022-08-07T04:08:11.842Z,11.90
2022-08-07T04:10:42.335Z,12.00
2022-08-07T04:13:15.173Z,12.00
2022-08-07T04:15:45.744Z,11.90
2022-08-07T04:18:57.462Z,11.90
2022-08-07T04:21:07.496Z,12.00
2022-08-07T04:23:43.444Z,11.20
2022-08-07T04:26:28.654Z,10.60
2022-08-07T04:28:58.561Z,10.50
2022-08-07T04:32:02.661Z,11.00
2022-08-07T04:34:17.437Z,11.60
2022-08-07T04:36:56.179Z,11.90
2022-08-07T04:39:26.217Z,12.20
2022-08-07T04:41:55.075Z,12.20
2022-08-07T04:44:25.993Z,12.30
2022-08-07T04:47:08.813Z,12.60
2022-08-07T04:49:57.509Z,12.50
2022-08-07T04:52:35.560Z,12.70
2022-08-07T04:55:15.634Z,11.70
2022-08-07T04:58:29.306Z,11.40
2022-08-07T05:01:03.322Z,12.10
2022-08-07T05:04:06.566Z,13.10
2022-08-07T05:06:51.274Z,15.30
2022-08-07T05:09:43.021Z,17.20
2022-08-07T05:12:26.942Z,17.90
2022-08-07T05:15:21.517Z,16.70
2022-08-07T05:18:00.778Z,17.60
2022-08-07T05:20:36.027Z,19.00
2022-08-07T05:23:15.608Z,19.60
2022-08-07T05:26:10.751Z,21.30
2022-08-07T05:28:36.092Z,21.60
2022-08-07T05:31:09.993Z,22.90
2022-08-07T05:33:39.770Z,23.90
2022-08-07T05:36:30.555Z,21.80
2022-08-07T05:40:13.960Z,20.20
2022-08-07T05:42:02.710Z,19.20
2022-08-07T05:44:35.048Z,18.30
2022-08-07T05:47:17.890Z,18.00
2022-08-07T05:49:49.189Z,17.90
2022-08-07T05:52:20.608Z,18.10
2022-08-07T05:54:58.963Z,17.80
2022-08-07T05:57:37.853Z,18.60
2022-08-07T06:00:16.387Z,18.10
2022-08-07T06:02:50.150Z,19.20
2022-08-07T06:05:20.372Z,19.30
2022-08-07T06:08:13.869Z,19.50
2022-08-07T06:10:51.260Z,19.90
2022-08-07T06:14:11.952Z,20.10
2022-08-07T06:16:13.487Z,20.70
2022-08-07T06:18:43.164Z,19.40
2022-08-07T06:22:16.567Z,18.40
2022-08-07T06:24:45.742Z,18.20
2022-08-07T06:26:58.735Z,19.10
2022-08-07T06:29:31.829Z,18.80
2022-08-07T06:31:59.965Z,19.40
2022-08-07T06:34:30.526Z,19.00
2022-08-07T06:36:58.797Z,19.00
2022-08-07T06:40:16.129Z,19.50
2022-08-07T06:42:33.141Z,19.40
2022-08-07T06:45:04.458Z,20.20
2022-08-07T06:47:48.280Z,19.90
2022-08-07T06:50:21.401Z,20.10
2022-08-07T06:52:55.803Z,20.00
2022-08-07T06:55:53.831Z,20.40
2022-08-07T06:58:21.485Z,21.00
2022-08-07T07:00:53.054Z,20.60
2022-08-07T07:03:39.794Z,22.90
2022-08-07T07:06:11.009Z,24.10
2022-08-07T07:08:46.816Z,24.70
2022-08-07T07:12:09.010Z,22.70
2022-08-07T07:14:08.302Z,22.20
2022-08-07T07:16:49.798Z,21.50
2022-08-07T07:19:55.612Z,21.00
2022-08-07T07:22:36.787Z,22.20
2022-08-07T07:25:02.857Z,23.90
2022-08-07T07:27:58.466Z,22.00
2022-08-07T07:30:38.520Z,23.80
2022-08-07T07:33:11.646Z,27.00
2022-08-07T07:35:54.080Z,27.90
2022-08-07T07:38:32.238Z,27.40
2022-08-07T07:41:04.155Z,23.40
2022-08-07T07:44:14.041Z,24.90
2022-08-07T07:46:37.147Z,28.90
2022-08-07T07:50:29.874Z,29.40
2022-08-07T07:52:06.083Z,29.10
2022-08-07T07:54:36.635Z,25.50
2022-08-07T07:57:06.288Z,26.90
2022-08-07T07:59:52.530Z,24.00
2022-08-07T08:02:34.189Z,23.40
2022-08-07T08:05:14.324Z,21.90
2022-08-07T08:07:59.535Z,22.30
2022-08-07T08:10:35.637Z,22.80
2022-08-07T08:13:10.299Z,24.40
2022-08-07T08:15:58.919Z,23.20
2022-08-07T08:18:30.331Z,23.50
2022-08-07T08:21:02.375Z,23.40
2022-08-07T08:23:50.132Z,23.50
2022-08-07T08:26:36.941Z,24.90
2022-08-07T08:29:06.151Z,23.60
2022-08-07T08:32:10.258Z,25.30
2022-08-07T08:34:31.124Z,27.00
2022-08-07T08:37:01.026Z,30.30
2022-08-07T08:39:39.847Z,30.60
2022-08-07T08:42:27.025Z,31.10
2022-08-07T08:45:04.225Z,26.20
2022-08-07T08:47:52.142Z,24.10
2022-08-07T08:50:34.861Z,25.90
2022-08-07T08:53:15.439Z,28.00
2022-08-07T08:55:55.309Z,28.70
2022-08-07T08:58:35.865Z,26.70
2022-08-07T09:01:15.821Z,30.80
2022-08-07T09:03:56.916Z,30.50
2022-08-07T09:06:47.723Z,32.40
2022-08-07T09:09:43.310Z,32.20
2022-08-07T09:12:31.658Z,25.50
2022-08-07T09:16:21.525Z,26.70
2022-08-07T09:18:22.866Z,28.20
2022-08-07T09:21:13.875Z,29.50
2022-08-07T09:24:32.764Z,31.70
2022-08-07T09:27:12.061Z,33.40
2022-08-07T09:30:06.431Z,28.60
2022-08-07T09:33:00.175Z,26.50
2022-08-07T09:36:03.282Z,28.70
2022-08-07T09:38:43.646Z,26.70
2022-08-07T09:41:36.315Z,25.10
2022-08-07T09:44:32.909Z,27.20
2022-08-07T09:47:58.829Z,28.70
2022-08-07T09:50:22.081Z,25.30
2022-08-07T09:53:00.795Z,27.50
2022-08-07T09:56:04.181Z,29.20
2022-08-07T09:58:51.055Z,29.90
2022-08-07T10:01:51.881Z,29.20
2022-08-07T10:04:38.283Z,26.90
2022-08-07T10:07:52.442Z,26.80
2022-08-07T10:10:48.330Z,27.20
2022-08-07T10:14:00.751Z,28.50
2022-08-07T10:16:39.313Z,31.70
2022-08-07T10:19:26.894Z,33.20
2022-08-07T10:22:15.866Z,33.10
2022-08-07T10:24:57.573Z,33.10
2022-08-07T10:27:46.859Z,32.20
2022-08-07T10:30:19.705Z,32.10
2022-08-07T10:33:08.501Z,31.50
2022-08-07T10:36:08.226Z,32.30
2022-08-07T10:38:51.434Z,32.50
2022-08-07T10:41:52.062Z,29.80
2022-08-07T10:44:30.031Z,31.00
2022-08-07T10:47:27.251Z,32.50
2022-08-07T10:50:15.170Z,27.40
2022-08-07T10:52:52.919Z,27.10
2022-08-07T10:55:37.906Z,27.80
2022-08-07T10:58:31.946Z,27.90
2022-08-07T11:01:35.351Z,28.30
2022-08-07T11:04:34.925Z,27.70
2022-08-07T11:07:56.938Z,25.90
2022-08-07T11:10:11.166Z,27.40
2022-08-07T11:12:49.142Z,30.30
2022-08-07T11:15:35.276Z,31.60
2022-08-07T11:18:15.513Z,28.10
2022-08-07T11:20:52.607Z,26.00
2022-08-07T11:23:38.380Z,26.70
2022-08-07T11:26:13.337Z,26.60
2022-08-07T11:28:53.497Z,29.30
2022-08-07T11:31:35.168Z,27.20
2022-08-07T11:34:17.178Z,26.00
2022-08-07T11:37:14.188Z,24.90
2022-08-07T11:40:11.237Z,26.40
2022-08-07T11:42:55.212Z,26.20
2022-08-07T11:45:35.924Z,27.30
2022-08-07T11:48:29.365Z,28.20
2022-08-07T11:51:44.596Z,31.80
2022-08-07T11:54:34.385Z,30.50
2022-08-07T11:57:18.712Z,28.60
2022-08-07T12:00:17.880Z,26.30
2022-08-07T12:03:41.281Z,28.80
2022-08-07T12:06:57.340Z,31.60
2022-08-07T12:09:35.494Z,30.30
2022-08-07T12:12:12.009Z,28.40
2022-08-07T12:14:51.456Z,29.30
2022-08-07T12:17:33.793Z,29.70
2022-08-07T12:20:18.657Z,28.60
2022-08-07T12:24:05.560Z,28.10
2022-08-07T12:26:30.053Z,28.90
2022-08-07T12:29:12.026Z,32.20
2022-08-07T12:31:52.880Z,27.80
2022-08-07T12:34:33.389Z,29.30
2022-08-07T12:37:08.285Z,29.20
2022-08-07T12:39:51.096Z,28.40
2022-08-07T12:42:27.807Z,29.20
2022-08-07T12:44:59.756Z,26.60
2022-08-07T12:47:41.591Z,28.40
2022-08-07T12:50:38.676Z,29.50
2022-08-07T12:53:17.908Z,28.80
2022-08-07T12:56:03.598Z,27.30
2022-08-07T12:58:37.573Z,26.70
2022-08-07T13:01:18.294Z,28.20
2022-08-07T13:04:05.243Z,31.80
2022-08-07T13:07:00.286Z,32.90
2022-08-07T13:10:29.150Z,30.60
2022-08-07T13:12:44.727Z,30.70
2022-08-07T13:15:31.724Z,30.00
2022-08-07T13:18:26.863Z,28.40
2022-08-07T13:21:07.104Z,27.10
2022-08-07T13:24:01.576Z,27.90
2022-08-07T13:26:38.733Z,26.60
2022-08-07T13:29:16.879Z,28.30
2022-08-07T13:31:57.466Z,27.30
2022-08-07T13:34:36.772Z,28.10
2022-08-07T13:37:20.075Z,29.60
2022-08-07T13:40:36.735Z,28.10
2022-08-07T13:42:59.133Z,29.60
2022-08-07T13:46:10.797Z,28.90
2022-08-07T13:48:34.276Z,30.00
2022-08-07T13:51:27.050Z,28.70
2022-08-07T13:54:01.612Z,28.00
2022-08-07T13:56:35.419Z,28.80
2022-08-07T13:59:13.037Z,27.20
2022-08-07T14:02:03.709Z,26.20
2022-08-07T14:04:49.312Z,26.60
2022-08-07T14:07:23.086Z,26.70
2022-08-07T14:10:02.748Z,29.50
2022-08-07T14:12:54.017Z,30.70
2022-08-07T14:15:31.918Z,29.60
2022-08-07T14:18:24.467Z,30.40
2022-08-07T14:21:08.301Z,31.90
2022-08-07T14:24:00.045Z,29.10
2022-08-07T14:26:37.077Z,27.60
2022-08-07T14:30:05.218Z,29.40
2022-08-07T14:32:02.091Z,28.80
2022-08-07T14:34:33.836Z,29.60
2022-08-07T14:37:04.103Z,28.70
2022-08-07T14:40:14.838Z,29.10
2022-08-07T14:42:31.446Z,29.50
2022-08-07T14:47:59.006Z,29.70
2022-08-07T14:50:31.593Z,29.40
2022-08-07T14:53:09.689Z,28.00
2022-08-07T14:55:55.667Z,27.70
2022-08-07T14:58:29.029Z,27.50
2022-08-07T15:01:00.160Z,26.60
2022-08-07T15:03:52.141Z,26.50
2022-08-07T15:06:26.254Z,28.00
2022-08-07T15:08:56.081Z,28.30
2022-08-07T15:11:53.411Z,28.40
2022-08-07T15:14:21.206Z,28.50
2022-08-07T15:16:55.751Z,28.50
2022-08-07T15:20:30.878Z,28.80
2022-08-07T15:25:23.295Z,28.30
2022-08-07T15:28:02.090Z,27.60
2022-08-07T15:30:59.560Z,27.20
2022-08-07T15:33:36.789Z,27.10
2022-08-07T15:36:08.570Z,25.90
2022-08-07T15:42:43.862Z,26.80
2022-08-07T15:44:24.041Z,27.20
2022-08-07T15:50:05.767Z,26.60
2022-08-07T15:52:38.004Z,27.10
2022-08-07T15:55:12.517Z,27.30
2022-08-07T15:57:48.574Z,26.30
2022-08-07T16:00:31.503Z,26.40
2022-08-07T16:03:04.015Z,26.40
2022-08-07T16:05:33.451Z,26.20
2022-08-07T16:08:31.591Z,26.70
2022-08-07T16:11:00.956Z,26.40
2022-08-07T16:13:58.764Z,26.80
2022-08-07T16:16:57.046Z,26.50
2022-08-07T16:19:59.003Z,26.40
2022-08-07T16:22:55.118Z,26.10
2022-08-07T16:25:52.323Z,26.10
2022-08-07T16:30:06.825Z,25.50
2022-08-07T16:31:51.845Z,25.60
2022-08-07T16:34:40.549Z,25.20
2022-08-07T16:38:06.869Z,25.00
2022-08-07T16:41:02.317Z,25.30
2022-08-07T16:44:05.941Z,25.10
2022-08-07T16:47:27.359Z,25.10
2022-08-07T16:50:36.302Z,25.00
2022-08-07T16:53:56.940Z,25.00
2022-08-07T16:56:21.548Z,24.70
2022-08-07T16:59:11.294Z,24.90
2022-08-07T17:01:56.726Z,24.80
2022-08-07T17:04:36.788Z,24.90
2022-08-07T17:07:28.331Z,24.60
2022-08-07T17:10:32.339Z,24.50
2022-08-07T17:13:41.368Z,24.50
2022-08-07T17:16:21.072Z,24.50
2022-08-07T17:19:03.205Z,24.00
2022-08-07T17:21:51.773Z,24.00
2022-08-07T17:24:52.107Z,23.80
2022-08-07T17:27:39.899Z,23.70
2022-08-07T17:30:26.913Z,23.70
2022-08-07T17:34:08.605Z,23.40
2022-08-07T17:36:01.747Z,23.60
2022-08-07T17:38:35.643Z,23.70
2022-08-07T17:41:12.376Z,23.80
2022-08-07T17:44:08.350Z,23.50
2022-08-07T17:46:52.613Z,23.50
2022-08-07T17:49:24.464Z,23.30
2022-08-07T17:52:00.536Z,23.30
2022-08-07T17:54:39.938Z,23.20
2022-08-07T17:57:56.493Z,23.10
2022-08-07T18:00:33.046Z,22.90
2022-08-07T18:03:09.482Z,22.70
2022-08-07T18:06:02.876Z,22.40
2022-08-07T18:09:00.700Z,22.20
2022-08-07T18:12:07.563Z,22.20
2022-08-07T18:14:29.043Z,22.00
2022-08-07T18:18:45.477Z,22.00
2022-08-07T18:21:09.923Z,21.90
2022-08-07T18:23:43.050Z,21.80
2022-08-07T18:26:19.225Z,21.60
2022-08-07T18:29:04.299Z,21.40
2022-08-07T18:31:50.363Z,21.30
2022-08-07T18:35:00.323Z,21.40
2022-08-07T18:38:57.159Z,21.20
2022-08-07T18:40:57.674Z,21.20
2022-08-07T18:43:49.117Z,21.10
2022-08-07T18:46:27.013Z,21.00
2022-08-07T18:50:31.695Z,20.90
2022-08-07T18:52:34.907Z,20.80
2022-08-07T18:54:51.519Z,20.70
2022-08-07T18:57:40.306Z,20.50
2022-08-07T19:00:32.048Z,20.30
2022-08-07T19:03:12.118Z,20.30
2022-08-07T19:06:02.578Z,20.00
2022-08-07T19:08:46.281Z,19.80
2022-08-07T19:11:35.704Z,19.70
2022-08-07T19:14:19.767Z,19.60
2022-08-07T19:17:08.091Z,19.40
2022-08-07T19:19:48.992Z,19.30
2022-08-07T19:22:31.259Z,19.10
2022-08-07T19:25:06.720Z,19.00
2022-08-07T19:30:54.164Z,18.90
2022-08-07T19:31:03.256Z,18.80
2022-08-07T19:33:34.934Z,18.70
2022-08-07T19:36:05.075Z,18.60
2022-08-07T19:38:53.454Z,18.50
2022-08-07T19:41:39.239Z,18.40
2022-08-07T19:44:21.426Z,18.40
2022-08-07T19:46:57.695Z,18.30
2022-08-07T19:49:57.389Z,18.10
2022-08-07T19:52:19.110Z,18.00
2022-08-07T19:54:56.186Z,18.00
2022-08-07T19:58:04.126Z,18.00
2022-08-07T20:00:28.836Z,17.80
2022-08-07T20:03:04.790Z,17.70
2022-08-07T20:06:01.306Z,17.70
2022-08-07T20:08:33.590Z,17.60
2022-08-07T20:11:09.663Z,17.60
2022-08-07T20:13:47.039Z,17.50
2022-08-07T20:16:35.200Z,17.40
2022-08-07T20:19:10.589Z,17.30
2022-08-07T20:21:41.873Z,17.20
2022-08-07T20:24:19.019Z,17.10
2022-08-07T20:26:52.261Z,17.20
2022-08-07T20:29:47.792Z,17.20
2022-08-07T20:32:23.159Z,17.00
2022-08-07T20:34:58.418Z,16.90
2022-08-07T20:37:33.669Z,16.90
2022-08-07T20:40:32.666Z,16.90
2022-08-07T20:42:57.829Z,16.80
2022-08-07T20:45:33.555Z,16.80
2022-08-07T20:48:29.085Z,16.70
2022-08-07T20:51:01.590Z,16.70
2022-08-07T20:54:02.804Z,16.60
2022-08-07T20:56:26.085Z,16.60
2022-08-07T20:58:58.569Z,16.50
2022-08-07T21:01:29.860Z,16.50
2022-08-07T21:04:22.977Z,16.40
2022-08-07T21:06:57.416Z,16.30
2022-08-07T21:09:51.603Z,16.20
2022-08-07T21:12:28.503Z,16.20
2022-08-07T21:14:59.648Z,16.20
2022-08-07T21:18:20.420Z,16.10
2022-08-07T21:20:29.723Z,16.20
2022-08-07T21:23:07.653Z,16.20
2022-08-07T21:25:56.687Z,16.20
2022-08-07T21:28:48.850Z,16.10
2022-08-07T21:31:49.158Z,16.00
2022-08-07T21:34:22.304Z,15.90
2022-08-07T21:37:03.667Z,15.90
2022-08-07T21:39:45.935Z,15.80
2022-08-07T21:42:42.829Z,15.80
2022-08-07T21:46:04.856Z,15.70
2022-08-07T21:48:28.668Z,15.70
2022-08-07T21:51:08.281Z,15.70
2022-08-07T21:53:53.537Z,15.70
2022-08-07T21:56:37.810Z,15.70
2022-08-07T21:59:23.087Z,15.60
2022-08-07T22:02:07.683Z,15.70
2022-08-07T22:04:53.506Z,15.60
2022-08-07T22:07:31.636Z,15.60
2022-08-07T22:10:14.437Z,15.60
2022-08-07T22:12:48.210Z,15.70
2022-08-07T22:16:40.948Z,15.80
2022-08-07T22:18:16.859Z,15.90
2022-08-07T22:20:50.722Z,16.00
2022-08-07T22:23:25.370Z,16.00
2022-08-07T22:26:05.957Z,16.00
2022-08-07T22:28:48.593Z,15.90
2022-08-07T22:31:56.357Z,15.90
2022-08-07T22:34:29.052Z,15.80
2022-08-07T22:37:09.276Z,15.60
2022-08-07T22:39:53.096Z,15.60
2022-08-07T22:42:53.709Z,15.50
2022-08-07T22:46:04.386Z,15.50
2022-08-07T22:48:31.445Z,15.50
2022-08-07T22:51:36.342Z,15.50
2022-08-07T22:54:26.528Z,15.40
2022-08-07T22:57:04.058Z,15.30
2022-08-07T22:59:49.909Z,15.30
2022-08-07T23:02:35.981Z,15.30
2022-08-07T23:06:09.167Z,15.20
2022-08-07T23:08:30.345Z,15.00
2022-08-07T23:11:12.883Z,15.00
2022-08-07T23:14:10.847Z,14.90
2022-08-07T23:17:08.644Z,14.80
2022-08-07T23:20:09.980Z,14.60
2022-08-07T23:22:52.340Z,14.60
2022-08-07T23:25:32.833Z,14.50
2022-08-07T23:28:22.309Z,14.40
2022-08-07T23:31:42.654Z,14.30
2022-08-07T23:34:37.442Z,14.30
2022-08-07T23:37:33.779Z,14.30
2022-08-07T23:40:15.563Z,14.10
2022-08-07T23:42:58.047Z,14.20
2022-08-07T23:46:01.875Z,14.10
2022-08-07T23:48:41.820Z,14.10
2022-08-07T23:53:01.317Z,14.00
2022-08-07T23:54:19.946Z,14.10
2022-08-07T23:57:18.644Z,14.00
